sensor_id;sensor_type;location;lat;lon;timestamp;pressure;altitude;pressure_sealevel;temperature;humidity
49040;BME280;36811;49.732;13.402;2022-10-16T00:01:57;97750.47;;;17.14;84.10
49040;BME280;36811;49.732;13.402;2022-10-16T00:04:23;97758.13;;;17.21;83.46
49040;BME280;36811;49.732;13.402;2022-10-16T00:06:48;97750.88;;;17.22;83.28
49040;BME280;36811;49.732;13.402;2022-10-16T00:09:14;97759.53;;;17.19;83.08
49040;BME280;36811;49.732;13.402;2022-10-16T00:11:40;97751.88;;;17.12;82.97
49040;BME280;36811;49.732;13.402;2022-10-16T00:14:09;97759.22;;;17.06;83.16
49040;BME280;36811;49.732;13.402;2022-10-16T00:16:36;97753.97;;;17.01;83.69
49040;BME280;36811;49.732;13.402;2022-10-16T00:19:03;97756.44;;;16.98;83.53
49040;BME280;36811;49.732;13.402;2022-10-16T00:21:30;97764.00;;;16.96;83.69
49040;BME280;36811;49.732;13.402;2022-10-16T00:24:03;97764.88;;;16.91;83.97
49040;BME280;36811;49.732;13.402;2022-10-16T00:26:32;97775.06;;;16.94;83.93
49040;BME280;36811;49.732;13.402;2022-10-16T00:28:59;97756.81;;;16.91;84.25
49040;BME280;36811;49.732;13.402;2022-10-16T00:31:25;97762.00;;;16.88;84.36
49040;BME280;36811;49.732;13.402;2022-10-16T00:33:51;97751.06;;;16.84;84.03
49040;BME280;36811;49.732;13.402;2022-10-16T00:36:19;97753.53;;;16.81;84.05
49040;BME280;36811;49.732;13.402;2022-10-16T00:38:46;97751.84;;;16.85;84.32
49040;BME280;36811;49.732;13.402;2022-10-16T00:41:14;97755.63;;;16.84;84.17
49040;BME280;36811;49.732;13.402;2022-10-16T00:46:17;97766.69;;;16.82;84.42
49040;BME280;36811;49.732;13.402;2022-10-16T00:48:52;97776.53;;;16.87;84.33
49040;BME280;36811;49.732;13.402;2022-10-16T00:51:23;97773.53;;;16.88;83.93
49040;BME280;36811;49.732;13.402;2022-10-16T00:53:50;97780.50;;;16.89;83.76
49040;BME280;36811;49.732;13.402;2022-10-16T00:56:16;97781.91;;;16.87;83.76
49040;BME280;36811;49.732;13.402;2022-10-16T00:58:43;97787.94;;;16.79;83.98
49040;BME280;36811;49.732;13.402;2022-10-16T01:01:08;97798.19;;;16.77;83.83
49040;BME280;36811;49.732;13.402;2022-10-16T01:03:36;97790.13;;;16.77;84.18
49040;BME280;36811;49.732;13.402;2022-10-16T01:11:45;97772.91;;;16.64;84.89
49040;BME280;36811;49.732;13.402;2022-10-16T01:14:42;97774.28;;;16.62;84.82
49040;BME280;36811;49.732;13.402;2022-10-16T01:17:31;97776.44;;;16.60;85.04
49040;BME280;36811;49.732;13.402;2022-10-16T01:20:08;97780.50;;;16.57;85.37
49040;BME280;36811;49.732;13.402;2022-10-16T01:25:27;97786.75;;;16.52;85.26
49040;BME280;36811;49.732;13.402;2022-10-16T01:27:57;97772.00;;;16.50;85.67
49040;BME280;36811;49.732;13.402;2022-10-16T01:30:30;97780.88;;;16.50;86.02
49040;BME280;36811;49.732;13.402;2022-10-16T01:33:01;97750.84;;;16.30;85.81
49040;BME280;36811;49.732;13.402;2022-10-16T01:35:41;97773.19;;;16.44;86.58
49040;BME280;36811;49.732;13.402;2022-10-16T01:38:41;97778.25;;;16.45;86.68
49040;BME280;36811;49.732;13.402;2022-10-16T01:41:17;97781.75;;;16.46;86.38
49040;BME280;36811;49.732;13.402;2022-10-16T01:44:08;97785.31;;;16.41;87.04
49040;BME280;36811;49.732;13.402;2022-10-16T01:46:39;97792.56;;;16.41;86.92
49040;BME280;36811;49.732;13.402;2022-10-16T01:49:06;97793.94;;;16.38;86.78
49040;BME280;36811;49.732;13.402;2022-10-16T01:51:35;97796.13;;;16.36;86.74
49040;BME280;36811;49.732;13.402;2022-10-16T01:54:05;97798.28;;;16.34;87.26
49040;BME280;36811;49.732;13.402;2022-10-16T01:56:34;97793.00;;;16.29;87.53
49040;BME280;36811;49.732;13.402;2022-10-16T01:59:05;97790.13;;;16.26;87.81
49040;BME280;36811;49.732;13.402;2022-10-16T02:01:35;97795.50;;;16.26;87.71
49040;BME280;36811;49.732;13.402;2022-10-16T02:04:09;97790.41;;;16.24;87.71
49040;BME280;36811;49.732;13.402;2022-10-16T02:06:37;97796.28;;;16.26;88.01
49040;BME280;36811;49.732;13.402;2022-10-16T02:09:03;97791.50;;;16.23;88.18
49040;BME280;36811;49.732;13.402;2022-10-16T02:11:28;97773.78;;;16.22;87.80
49040;BME280;36811;49.732;13.402;2022-10-16T02:14:12;97764.94;;;16.22;87.99
49040;BME280;36811;49.732;13.402;2022-10-16T02:16:41;97769.53;;;16.21;88.17
49040;BME280;36811;49.732;13.402;2022-10-16T02:19:07;97766.84;;;16.21;87.79
49040;BME280;36811;49.732;13.402;2022-10-16T02:21:59;97769.53;;;16.21;87.84
49040;BME280;36811;49.732;13.402;2022-10-16T02:24:43;97778.09;;;16.23;87.83
49040;BME280;36811;49.732;13.402;2022-10-16T02:27:36;97778.34;;;16.22;87.97
49040;BME280;36811;49.732;13.402;2022-10-16T02:30:13;97781.03;;;16.22;88.03
49040;BME280;36811;49.732;13.402;2022-10-16T02:32:42;97785.81;;;16.25;87.86
49040;BME280;36811;49.732;13.402;2022-10-16T02:35:11;97779.16;;;16.22;87.72
49040;BME280;36811;49.732;13.402;2022-10-16T02:37:38;97792.56;;;16.22;87.86
49040;BME280;36811;49.732;13.402;2022-10-16T02:40:07;97797.13;;;16.22;87.78
49040;BME280;36811;49.732;13.402;2022-10-16T02:42:35;97799.25;;;16.25;87.68
49040;BME280;36811;49.732;13.402;2022-10-16T02:45:01;97801.72;;;16.21;87.84
49040;BME280;36811;49.732;13.402;2022-10-16T02:47:27;97789.47;;;16.15;87.93
49040;BME280;36811;49.732;13.402;2022-10-16T02:49:53;97787.84;;;16.14;87.89
49040;BME280;36811;49.732;13.402;2022-10-16T02:52:19;97791.56;;;16.18;88.03
49040;BME280;36811;49.732;13.402;2022-10-16T02:54:45;97803.38;;;16.17;87.96
49040;BME280;36811;49.732;13.402;2022-10-16T02:57:10;97803.38;;;16.17;88.05
49040;BME280;36811;49.732;13.402;2022-10-16T02:59:37;97795.91;;;16.14;87.94
49040;BME280;36811;49.732;13.402;2022-10-16T03:02:03;97795.06;;;16.19;87.80
49040;BME280;36811;49.732;13.402;2022-10-16T03:04:29;97802.81;;;16.20;87.94
49040;BME280;36811;49.732;13.402;2022-10-16T03:06:54;97799.06;;;16.21;87.69
49040;BME280;36811;49.732;13.402;2022-10-16T03:09:20;97798.25;;;16.21;87.92
49040;BME280;36811;49.732;13.402;2022-10-16T03:11:45;97801.44;;;16.23;87.98
49040;BME280;36811;49.732;13.402;2022-10-16T03:14:11;97796.63;;;16.20;87.73
49040;BME280;36811;49.732;13.402;2022-10-16T03:16:37;97806.06;;;16.17;88.02
49040;BME280;36811;49.732;13.402;2022-10-16T03:19:02;97801.00;;;16.16;88.03
49040;BME280;36811;49.732;13.402;2022-10-16T03:21:28;97797.81;;;16.14;88.20
49040;BME280;36811;49.732;13.402;2022-10-16T03:23:54;97787.09;;;16.14;88.06
49040;BME280;36811;49.732;13.402;2022-10-16T03:26:20;97794.84;;;16.15;88.11
49040;BME280;36811;49.732;13.402;2022-10-16T03:28:46;97800.19;;;16.15;87.63
49040;BME280;36811;49.732;13.402;2022-10-16T03:31:12;97800.69;;;16.17;88.03
49040;BME280;36811;49.732;13.402;2022-10-16T03:33:37;97810.34;;;16.18;87.76
49040;BME280;36811;49.732;13.402;2022-10-16T03:36:03;97811.16;;;16.19;87.76
49040;BME280;36811;49.732;13.402;2022-10-16T03:38:29;97814.41;;;16.16;87.76
49040;BME280;36811;49.732;13.402;2022-10-16T03:40:54;97810.44;;;16.13;87.59
49040;BME280;36811;49.732;13.402;2022-10-16T03:43:20;97806.66;;;16.14;87.76
49040;BME280;36811;49.732;13.402;2022-10-16T03:45:46;97809.84;;;16.16;87.59
49040;BME280;36811;49.732;13.402;2022-10-16T03:48:11;97817.91;;;16.16;87.48
49040;BME280;36811;49.732;13.402;2022-10-16T03:50:37;97824.06;;;16.17;87.02
49040;BME280;36811;49.732;13.402;2022-10-16T03:53:03;97832.03;;;16.22;86.97
49040;BME280;36811;49.732;13.402;2022-10-16T03:55:29;97836.38;;;16.18;86.70
49040;BME280;36811;49.732;13.402;2022-10-16T03:57:54;97836.03;;;16.24;87.00
49040;BME280;36811;49.732;13.402;2022-10-16T04:00:20;97833.63;;;16.23;86.89
49040;BME280;36811;49.732;13.402;2022-10-16T04:02:45;97838.69;;;16.24;86.39
49040;BME280;36811;49.732;13.402;2022-10-16T04:05:11;97838.44;;;16.26;86.28
49040;BME280;36811;49.732;13.402;2022-10-16T04:07:36;97831.97;;;16.27;86.50
49040;BME280;36811;49.732;13.402;2022-10-16T04:10:04;97832.75;;;16.27;86.29
49040;BME280;36811;49.732;13.402;2022-10-16T04:12:29;97832.41;;;16.34;86.07
49040;BME280;36811;49.732;13.402;2022-10-16T04:14:55;97832.41;;;16.34;86.01
49040;BME280;36811;49.732;13.402;2022-10-16T04:17:20;97828.13;;;16.33;85.90
49040;BME280;36811;49.732;13.402;2022-10-16T04:19:46;97844.72;;;16.35;85.83
49040;BME280;36811;49.732;13.402;2022-10-16T04:22:12;97842.84;;;16.35;85.48
49040;BME280;36811;49.732;13.402;2022-10-16T04:24:37;97838.56;;;16.34;85.57
49040;BME280;36811;49.732;13.402;2022-10-16T04:27:03;97841.25;;;16.34;85.71
49040;BME280;36811;49.732;13.402;2022-10-16T04:29:28;97843.94;;;16.34;85.57
49040;BME280;36811;49.732;13.402;2022-10-16T04:31:54;97851.72;;;16.36;85.17
49040;BME280;36811;49.732;13.402;2022-10-16T04:34:19;97853.50;;;16.40;85.43
49040;BME280;36811;49.732;13.402;2022-10-16T04:36:47;97865.78;;;16.46;84.97
49040;BME280;36811;49.732;13.402;2022-10-16T04:39:17;97877.84;;;16.49;85.10
49040;BME280;36811;49.732;13.402;2022-10-16T04:41:42;97874.41;;;16.43;85.00
49040;BME280;36811;49.732;13.402;2022-10-16T04:44:08;97873.91;;;16.41;84.96
49040;BME280;36811;49.732;13.402;2022-10-16T04:46:33;97870.13;;;16.42;84.97
49040;BME280;36811;49.732;13.402;2022-10-16T04:48:59;97874.19;;;16.40;85.32
49040;BME280;36811;49.732;13.402;2022-10-16T04:51:25;97876.06;;;16.39;85.24
49040;BME280;36811;49.732;13.402;2022-10-16T04:53:53;97868.00;;;16.39;85.08
49040;BME280;36811;49.732;13.402;2022-10-16T04:56:21;97881.16;;;16.41;84.79
49040;BME280;36811;49.732;13.402;2022-10-16T04:58:47;97877.91;;;16.44;85.01
49040;BME280;36811;49.732;13.402;2022-10-16T05:01:13;97877.91;;;16.44;84.57
49040;BME280;36811;49.732;13.402;2022-10-16T05:03:39;97869.94;;;16.39;84.93
49040;BME280;36811;49.732;13.402;2022-10-16T05:06:07;97877.25;;;16.33;85.00
49040;BME280;36811;49.732;13.402;2022-10-16T05:08:33;97867.38;;;16.29;85.40
49040;BME280;36811;49.732;13.402;2022-10-16T05:10:58;97872.75;;;16.29;85.21
49040;BME280;36811;49.732;13.402;2022-10-16T05:13:25;97864.16;;;16.27;85.10
49040;BME280;36811;49.732;13.402;2022-10-16T05:15:50;97871.94;;;16.28;85.22
49040;BME280;36811;49.732;13.402;2022-10-16T05:18:17;97872.22;;;16.27;85.22
49040;BME280;36811;49.732;13.402;2022-10-16T05:20:42;97876.22;;;16.29;84.88
49040;BME280;36811;49.732;13.402;2022-10-16T05:23:08;97873.53;;;16.29;85.04
49040;BME280;36811;49.732;13.402;2022-10-16T05:25:36;97868.69;;;16.31;85.10
49040;BME280;36811;49.732;13.402;2022-10-16T05:28:02;97879.44;;;16.31;84.62
49040;BME280;36811;49.732;13.402;2022-10-16T05:30:28;97884.00;;;16.31;84.86
49040;BME280;36811;49.732;13.402;2022-10-16T05:32:54;97886.69;;;16.31;84.67
49040;BME280;36811;49.732;13.402;2022-10-16T05:35:20;97890.16;;;16.31;84.37
49040;BME280;36811;49.732;13.402;2022-10-16T05:37:46;97901.75;;;16.27;84.86
49040;BME280;36811;49.732;13.402;2022-10-16T05:40:12;97899.88;;;16.27;84.61
49040;BME280;36811;49.732;13.402;2022-10-16T05:42:38;97902.56;;;16.27;84.27
49040;BME280;36811;49.732;13.402;2022-10-16T05:45:05;97901.19;;;16.30;84.49
49040;BME280;36811;49.732;13.402;2022-10-16T05:47:31;97898.22;;;16.31;84.75
49040;BME280;36811;49.732;13.402;2022-10-16T05:49:57;97896.84;;;16.34;84.60
49040;BME280;36811;49.732;13.402;2022-10-16T05:52:22;97895.16;;;16.38;84.11
49040;BME280;36811;49.732;13.402;2022-10-16T05:54:48;97901.84;;;16.40;84.06
49040;BME280;36811;49.732;13.402;2022-10-16T05:57:14;97906.63;;;16.43;83.83
49040;BME280;36811;49.732;13.402;2022-10-16T05:59:39;97910.84;;;16.49;83.74
49040;BME280;36811;49.732;13.402;2022-10-16T06:02:05;97914.28;;;16.55;83.39
49040;BME280;36811;49.732;13.402;2022-10-16T06:04:30;97914.44;;;16.64;83.15
49040;BME280;36811;49.732;13.402;2022-10-16T06:06:58;97921.31;;;16.70;82.80
49040;BME280;36811;49.732;13.402;2022-10-16T06:09:26;97919.34;;;16.75;82.63
49040;BME280;36811;49.732;13.402;2022-10-16T06:11:51;97928.44;;;16.79;82.58
49040;BME280;36811;49.732;13.402;2022-10-16T06:14:17;97931.31;;;16.83;82.10
49040;BME280;36811;49.732;13.402;2022-10-16T06:16:43;97924.81;;;16.89;82.20
49040;BME280;36811;49.732;13.402;2022-10-16T06:19:08;97922.44;;;17.01;81.29
49040;BME280;36811;49.732;13.402;2022-10-16T06:21:34;97930.06;;;17.12;81.22
49040;BME280;36811;49.732;13.402;2022-10-16T06:24:00;97935.47;;;17.26;80.90
49040;BME280;36811;49.732;13.402;2022-10-16T06:26:29;97936.59;;;17.39;80.17
49040;BME280;36811;49.732;13.402;2022-10-16T06:28:56;97956.81;;;17.36;80.29
49040;BME280;36811;49.732;13.402;2022-10-16T06:31:23;97959.91;;;17.30;80.24
49040;BME280;36811;49.732;13.402;2022-10-16T06:33:53;97948.50;;;17.19;80.43
49040;BME280;36811;49.732;13.402;2022-10-16T06:36:19;97944.13;;;17.23;80.55
49040;BME280;36811;49.732;13.402;2022-10-16T06:38:46;97942.28;;;17.37;80.20
49040;BME280;36811;49.732;13.402;2022-10-16T06:41:15;97952.88;;;17.47;79.53
49040;BME280;36811;49.732;13.402;2022-10-16T06:43:41;97948.94;;;17.58;79.09
49040;BME280;36811;49.732;13.402;2022-10-16T06:46:09;97946.53;;;17.57;79.10
49040;BME280;36811;49.732;13.402;2022-10-16T06:48:36;97943.75;;;17.62;78.85
49040;BME280;36811;49.732;13.402;2022-10-16T06:53:29;97946.66;;;17.65;78.21
49040;BME280;36811;49.732;13.402;2022-10-16T06:55:55;97951.66;;;17.72;78.15
49040;BME280;36811;49.732;13.402;2022-10-16T06:58:21;97951.97;;;17.98;77.96
49040;BME280;36811;49.732;13.402;2022-10-16T07:00:48;97952.28;;;18.23;76.98
49040;BME280;36811;49.732;13.402;2022-10-16T07:03:14;97956.22;;;18.39;76.63
49040;BME280;36811;49.732;13.402;2022-10-16T07:05:41;97957.22;;;18.71;75.86
49040;BME280;36811;49.732;13.402;2022-10-16T07:08:08;97964.97;;;19.08;74.99
49040;BME280;36811;49.732;13.402;2022-10-16T07:10:35;97957.72;;;19.53;73.71
49040;BME280;36811;49.732;13.402;2022-10-16T07:13:01;97963.97;;;20.01;72.78
49040;BME280;36811;49.732;13.402;2022-10-16T07:15:27;97963.88;;;20.71;71.84
49040;BME280;36811;49.732;13.402;2022-10-16T07:17:53;97972.81;;;21.23;70.04
49040;BME280;36811;49.732;13.402;2022-10-16T07:20:19;97988.56;;;21.38;68.45
49040;BME280;36811;49.732;13.402;2022-10-16T07:22:45;97977.59;;;21.18;68.13
49040;BME280;36811;49.732;13.402;2022-10-16T07:25:11;97982.03;;;20.97;68.30
49040;BME280;36811;49.732;13.402;2022-10-16T07:27:37;97991.78;;;21.06;68.38
49040;BME280;36811;49.732;13.402;2022-10-16T07:30:04;97989.06;;;21.06;68.05
49040;BME280;36811;49.732;13.402;2022-10-16T07:32:31;98001.34;;;21.12;67.80
49040;BME280;36811;49.732;13.402;2022-10-16T07:34:57;98002.72;;;21.01;67.54
49040;BME280;36811;49.732;13.402;2022-10-16T07:37:22;97999.22;;;21.18;67.75
49040;BME280;36811;49.732;13.402;2022-10-16T07:39:48;97995.59;;;21.39;66.72
49040;BME280;36811;49.732;13.402;2022-10-16T07:42:13;97995.09;;;21.46;66.47
49040;BME280;36811;49.732;13.402;2022-10-16T07:44:39;97998.22;;;21.74;66.05
49040;BME280;36811;49.732;13.402;2022-10-16T07:47:06;98006.47;;;22.03;65.32
49040;BME280;36811;49.732;13.402;2022-10-16T07:49:32;98016.13;;;22.21;64.74
49040;BME280;36811;49.732;13.402;2022-10-16T07:51:58;98014.53;;;22.20;64.83
49040;BME280;36811;49.732;13.402;2022-10-16T07:54:23;98019.50;;;22.47;64.21
49040;BME280;36811;49.732;13.402;2022-10-16T07:56:49;98020.78;;;23.00;62.52
49040;BME280;36811;49.732;13.402;2022-10-16T07:59:15;98009.50;;;23.18;61.66
49040;BME280;36811;49.732;13.402;2022-10-16T08:01:40;98017.31;;;23.41;61.44
49040;BME280;36811;49.732;13.402;2022-10-16T08:04:09;98014.50;;;23.37;61.13
49040;BME280;36811;49.732;13.402;2022-10-16T08:06:37;98014.88;;;23.48;60.41
49040;BME280;36811;49.732;13.402;2022-10-16T08:09:03;98031.63;;;23.50;60.41
49040;BME280;36811;49.732;13.402;2022-10-16T08:11:29;98037.16;;;23.53;60.29
49040;BME280;36811;49.732;13.402;2022-10-16T08:13:55;98044.97;;;23.75;59.78
49040;BME280;36811;49.732;13.402;2022-10-16T08:16:21;98054.19;;;23.95;59.49
49040;BME280;36811;49.732;13.402;2022-10-16T08:18:47;98051.03;;;23.93;58.86
49040;BME280;36811;49.732;13.402;2022-10-16T08:21:16;98059.75;;;23.66;58.50
49040;BME280;36811;49.732;13.402;2022-10-16T08:23:42;98063.75;;;23.48;58.69
49040;BME280;36811;49.732;13.402;2022-10-16T08:26:10;98062.72;;;23.11;58.30
49040;BME280;36811;49.732;13.402;2022-10-16T08:28:36;98061.16;;;22.43;59.94
49040;BME280;36811;49.732;13.402;2022-10-16T08:31:13;98056.94;;;22.16;60.91
49040;BME280;36811;49.732;13.402;2022-10-16T08:33:41;98059.56;;;21.87;61.26
49040;BME280;36811;49.732;13.402;2022-10-16T08:36:07;98071.66;;;21.89;61.95
49040;BME280;36811;49.732;13.402;2022-10-16T08:38:33;98063.06;;;21.62;61.64
49040;BME280;36811;49.732;13.402;2022-10-16T08:47:17;98073.66;;;20.89;63.79
49040;BME280;36811;49.732;13.402;2022-10-16T08:50:00;98065.53;;;20.89;64.11
49040;BME280;36811;49.732;13.402;2022-10-16T08:52:33;98068.41;;;20.93;64.46
49040;BME280;36811;49.732;13.402;2022-10-16T08:55:01;98063.47;;;20.95;64.56
49040;BME280;36811;49.732;13.402;2022-10-16T08:57:27;98068.69;;;20.83;64.80
49040;BME280;36811;49.732;13.402;2022-10-16T08:59:55;98069.69;;;20.87;64.77
49040;BME280;36811;49.732;13.402;2022-10-16T09:02:35;98079.69;;;20.95;65.29
49040;BME280;36811;49.732;13.402;2022-10-16T09:13:02;98102.25;;;24.48;59.62
49040;BME280;36811;49.732;13.402;2022-10-16T09:15:39;98093.31;;;25.08;56.99
49040;BME280;36811;49.732;13.402;2022-10-16T09:18:34;98095.78;;;25.25;56.30
49040;BME280;36811;49.732;13.402;2022-10-16T09:23:47;98096.25;;;25.79;54.42
49040;BME280;36811;49.732;13.402;2022-10-16T09:26:14;98061.91;;;26.18;52.39
49040;BME280;36811;49.732;13.402;2022-10-16T09:28:40;98069.53;;;26.12;53.18
49040;BME280;36811;49.732;13.402;2022-10-16T09:31:15;98079.31;;;26.13;52.26
49040;BME280;36811;49.732;13.402;2022-10-16T09:33:42;98081.56;;;25.56;52.75
49040;BME280;36811;49.732;13.402;2022-10-16T09:36:08;98083.47;;;25.03;53.22
49040;BME280;36811;49.732;13.402;2022-10-16T09:38:36;98106.53;;;24.49;54.20
49040;BME280;36811;49.732;13.402;2022-10-16T09:41:34;98106.09;;;24.47;55.37
49040;BME280;36811;49.732;13.402;2022-10-16T09:44:02;98105.19;;;24.43;55.18
49040;BME280;36811;49.732;13.402;2022-10-16T09:46:36;98098.53;;;24.08;55.06
49040;BME280;36811;49.732;13.402;2022-10-16T09:49:16;98095.13;;;23.78;55.72
49040;BME280;36811;49.732;13.402;2022-10-16T09:51:44;98090.66;;;23.73;56.11
49040;BME280;36811;49.732;13.402;2022-10-16T09:56:37;98095.44;;;23.76;56.09
49040;BME280;36811;49.732;13.402;2022-10-16T09:59:12;98105.41;;;24.05;56.01
49040;BME280;36811;49.732;13.402;2022-10-16T10:01:49;98108.00;;;24.34;55.50
49040;BME280;36811;49.732;13.402;2022-10-16T10:04:19;98109.16;;;24.33;55.62
49040;BME280;36811;49.732;13.402;2022-10-16T10:06:49;98110.13;;;24.29;55.21
49040;BME280;36811;49.732;13.402;2022-10-16T10:09:28;98104.38;;;23.97;55.36
49040;BME280;36811;49.732;13.402;2022-10-16T10:12:04;98099.72;;;23.65;55.37
49040;BME280;36811;49.732;13.402;2022-10-16T10:14:34;98102.94;;;23.38;55.57
49040;BME280;36811;49.732;13.402;2022-10-16T10:33:41;98112.41;;;24.27;54.67
49040;BME280;36811;49.732;13.402;2022-10-16T10:36:38;98125.81;;;24.11;55.23
49040;BME280;36811;49.732;13.402;2022-10-16T10:39:25;98113.78;;;24.00;55.49
49040;BME280;36811;49.732;13.402;2022-10-16T10:42:13;98119.22;;;24.00;55.60
49040;BME280;36811;49.732;13.402;2022-10-16T10:50:41;98114.38;;;24.06;55.91
49040;BME280;36811;49.732;13.402;2022-10-16T10:53:44;98116.06;;;24.43;55.04
49040;BME280;36811;49.732;13.402;2022-10-16T10:59:58;98119.53;;;24.31;54.80
49040;BME280;36811;49.732;13.402;2022-10-16T11:02:15;98121.06;;;24.53;54.89
49040;BME280;36811;49.732;13.402;2022-10-16T11:08:05;98118.34;;;24.41;54.42
49040;BME280;36811;49.732;13.402;2022-10-16T11:10:53;98121.78;;;24.74;54.85
49040;BME280;36811;49.732;13.402;2022-10-16T11:30:39;98113.28;;;25.24;53.45
49040;BME280;36811;49.732;13.402;2022-10-16T11:33:32;98110.16;;;25.90;52.68
49040;BME280;36811;49.732;13.402;2022-10-16T11:41:35;98108.28;;;25.78;52.33
49040;BME280;36811;49.732;13.402;2022-10-16T11:50:25;98095.69;;;27.07;48.61
49040;BME280;36811;49.732;13.402;2022-10-16T11:58:05;98093.59;;;26.85;48.62
49040;BME280;36811;49.732;13.402;2022-10-16T12:00:43;98098.47;;;26.91;48.20
49040;BME280;36811;49.732;13.402;2022-10-16T12:03:35;98092.28;;;27.29;48.47
49040;BME280;36811;49.732;13.402;2022-10-16T12:08:46;98080.69;;;28.09;47.10
49040;BME280;36811;49.732;13.402;2022-10-16T12:16:57;98082.00;;;28.15;47.75
49040;BME280;36811;49.732;13.402;2022-10-16T12:19:27;98082.53;;;28.47;45.97
49040;BME280;36811;49.732;13.402;2022-10-16T12:21:56;98076.34;;;28.72;45.17
49040;BME280;36811;49.732;13.402;2022-10-16T12:24:33;98079.19;;;28.79;45.85
49040;BME280;36811;49.732;13.402;2022-10-16T12:27:01;98078.28;;;29.21;44.98
49040;BME280;36811;49.732;13.402;2022-10-16T12:29:36;98081.91;;;28.76;45.36
49040;BME280;36811;49.732;13.402;2022-10-16T12:32:05;98081.84;;;28.72;44.51
49040;BME280;36811;49.732;13.402;2022-10-16T12:34:44;98086.53;;;28.07;45.65
49040;BME280;36811;49.732;13.402;2022-10-16T12:37:34;98101.00;;;28.08;46.02
49040;BME280;36811;49.732;13.402;2022-10-16T12:39:59;98097.41;;;27.85;46.67
49040;BME280;36811;49.732;13.402;2022-10-16T12:42:36;98096.94;;;27.63;46.60
49040;BME280;36811;49.732;13.402;2022-10-16T12:45:23;98103.09;;;27.06;47.96
49040;BME280;36811;49.732;13.402;2022-10-16T12:47:51;98108.22;;;26.92;47.88
49040;BME280;36811;49.732;13.402;2022-10-16T12:50:36;98098.25;;;27.00;48.34
49040;BME280;36811;49.732;13.402;2022-10-16T12:53:21;98096.22;;;26.97;48.43
49040;BME280;36811;49.732;13.402;2022-10-16T12:55:56;98100.81;;;27.08;48.13
49040;BME280;36811;49.732;13.402;2022-10-16T13:01:39;98102.13;;;26.68;49.58
49040;BME280;36811;49.732;13.402;2022-10-16T13:12:58;98101.38;;;27.18;47.64
49040;BME280;36811;49.732;13.402;2022-10-16T13:21:14;98100.28;;;26.40;50.17
49040;BME280;36811;49.732;13.402;2022-10-16T13:24:07;98099.34;;;26.80;49.98
49040;BME280;36811;49.732;13.402;2022-10-16T13:26:49;98097.44;;;26.99;50.31
49040;BME280;36811;49.732;13.402;2022-10-16T13:29:19;98111.44;;;27.14;49.23
49040;BME280;36811;49.732;13.402;2022-10-16T13:31:46;98113.56;;;27.04;48.84
49040;BME280;36811;49.732;13.402;2022-10-16T13:34:19;98111.53;;;27.17;49.04
49040;BME280;36811;49.732;13.402;2022-10-16T13:36:51;98111.28;;;27.76;48.56
49040;BME280;36811;49.732;13.402;2022-10-16T13:39:27;98120.53;;;27.91;46.06
49040;BME280;36811;49.732;13.402;2022-10-16T13:42:04;98123.88;;;28.00;46.86
49040;BME280;36811;49.732;13.402;2022-10-16T13:44:36;98118.00;;;28.81;45.33
49040;BME280;36811;49.732;13.402;2022-10-16T13:47:03;98110.84;;;29.26;43.93
49040;BME280;36811;49.732;13.402;2022-10-16T13:49:28;98108.94;;;29.30;43.93
49040;BME280;36811;49.732;13.402;2022-10-16T13:51:58;98115.66;;;28.83;44.04
49040;BME280;36811;49.732;13.402;2022-10-16T13:54:26;98118.28;;;28.76;44.63
49040;BME280;36811;49.732;13.402;2022-10-16T13:56:52;98120.28;;;28.79;44.34
49040;BME280;36811;49.732;13.402;2022-10-16T13:59:26;98122.16;;;28.98;44.63
49040;BME280;36811;49.732;13.402;2022-10-16T14:01:55;98126.22;;;29.08;43.38
49040;BME280;36811;49.732;13.402;2022-10-16T14:04:23;98114.94;;;29.13;43.61
49040;BME280;36811;49.732;13.402;2022-10-16T14:06:50;98116.84;;;29.09;43.07
49040;BME280;36811;49.732;13.402;2022-10-16T14:09:29;98116.25;;;28.96;43.94
49040;BME280;36811;49.732;13.402;2022-10-16T14:14:23;98120.13;;;28.69;44.41
49040;BME280;36811;49.732;13.402;2022-10-16T14:16:49;98120.75;;;29.34;43.27
49040;BME280;36811;49.732;13.402;2022-10-16T14:19:23;98127.81;;;29.35;43.35
49040;BME280;36811;49.732;13.402;2022-10-16T14:21:51;98122.28;;;29.31;43.36
49040;BME280;36811;49.732;13.402;2022-10-16T14:24:34;98125.84;;;29.32;42.96
49040;BME280;36811;49.732;13.402;2022-10-16T14:27:01;98122.00;;;29.14;42.43
49040;BME280;36811;49.732;13.402;2022-10-16T14:29:29;98128.84;;;29.01;42.79
49040;BME280;36811;49.732;13.402;2022-10-16T14:32:06;98124.69;;;28.61;43.43
49040;BME280;36811;49.732;13.402;2022-10-16T14:34:54;98135.38;;;27.90;43.82
49040;BME280;36811;49.732;13.402;2022-10-16T14:37:30;98135.22;;;27.29;45.53
49040;BME280;36811;49.732;13.402;2022-10-16T14:39:56;98134.22;;;26.86;46.69
49040;BME280;36811;49.732;13.402;2022-10-16T14:42:24;98130.91;;;26.49;47.46
49040;BME280;36811;49.732;13.402;2022-10-16T14:44:51;98136.56;;;26.13;47.67
49040;BME280;36811;49.732;13.402;2022-10-16T14:47:21;98142.63;;;25.67;48.12
49040;BME280;36811;49.732;13.402;2022-10-16T14:49:51;98138.69;;;25.28;49.07
49040;BME280;36811;49.732;13.402;2022-10-16T14:52:18;98144.38;;;24.99;50.33
49040;BME280;36811;49.732;13.402;2022-10-16T14:54:48;98144.16;;;24.92;50.19
49040;BME280;36811;49.732;13.402;2022-10-16T14:57:23;98141.97;;;24.85;50.66
49040;BME280;36811;49.732;13.402;2022-10-16T14:59:50;98137.31;;;24.74;50.82
49040;BME280;36811;49.732;13.402;2022-10-16T15:02:29;98149.19;;;24.57;51.36
49040;BME280;36811;49.732;13.402;2022-10-16T15:04:56;98149.50;;;24.43;51.30
49040;BME280;36811;49.732;13.402;2022-10-16T15:07:23;98148.56;;;24.39;51.37
49040;BME280;36811;49.732;13.402;2022-10-16T15:09:48;98150.03;;;24.37;51.16